Time;durP1;ratioP1;P1;durP2;ratioP2;P2;SDS_P1;SDS_P2;PMS_P1;PMS_P2;Temp;Humidity;BMP_temperature;BMP_pressure;BME280_temperature;BME280_humidity;BME280_pressure;Samples;Min_cycle;Max_cycle;Signal;HPM_P1;HPM_P2
2021/05/19 00:02:17;;;;;;;5.32;3.00;;;10.00;99.90;;;;;;10411683;28;20106;-59
2021/05/19 00:07:20;;;;;;;2.65;1.70;;;9.90;99.90;;;;;;10412664;28;20055;-59
2021/05/19 00:12:21;;;;;;;3.78;2.50;;;9.90;99.90;;;;;;10411146;28;20112;-60
2021/05/19 00:17:24;;;;;;;5.10;2.33;;;9.80;99.90;;;;;;10394392;28;20128;-59
2021/05/19 00:22:26;;;;;;;4.32;2.13;;;9.70;99.90;;;;;;10412717;28;20088;-58
2021/05/19 00:27:27;;;;;;;3.75;2.03;;;9.70;99.90;;;;;;10414357;28;20049;-59
2021/05/19 00:32:29;;;;;;;3.63;1.92;;;9.60;99.90;;;;;;10408827;28;20054;-59
2021/05/19 00:37:31;;;;;;;3.63;2.33;;;9.50;99.90;;;;;;10408049;28;20119;-59
2021/05/19 00:42:32;;;;;;;2.67;2.47;;;9.40;99.90;;;;;;10392595;28;20118;-59
2021/05/19 00:47:36;;;;;;;4.40;2.15;;;9.40;99.90;;;;;;10407137;28;20049;-59
2021/05/19 00:52:38;;;;;;;4.22;2.25;;;9.30;99.90;;;;;;10409287;28;20053;-59
2021/05/19 00:57:44;;;;;;;4.85;3.15;;;9.20;99.90;;;;;;10408737;28;20572;-59
2021/05/19 01:02:46;;;;;;;3.22;2.60;;;9.10;99.90;;;;;;10413099;28;20138;-59
2021/05/19 01:13:08;;;;;;;7.22;3.15;;;8.90;99.90;;;;;;10411770;28;20045;-58
2021/05/19 01:18:10;;;;;;;3.80;2.60;;;8.80;99.90;;;;;;10406124;28;20033;-58
2021/05/19 01:23:12;;;;;;;3.72;3.03;;;8.60;99.90;;;;;;10409041;28;20566;-58
2021/05/19 01:28:13;;;;;;;4.63;3.08;;;8.60;99.90;;;;;;10388168;28;20054;-58
2021/05/19 01:33:16;;;;;;;5.18;3.40;;;8.60;99.90;;;;;;10408045;28;20120;-60
2021/05/19 01:38:18;;;;;;;5.28;3.20;;;8.50;99.90;;;;;;10405740;28;20061;-59
2021/05/19 01:43:29;;;;;;;5.75;3.80;;;8.40;99.90;;;;;;10409017;28;20115;-59
2021/05/19 01:48:32;;;;;;;5.05;3.25;;;8.30;99.90;;;;;;10414131;28;20049;-58
2021/05/19 01:53:36;;;;;;;4.47;3.15;;;8.30;99.90;;;;;;10425353;28;20488;-59
2021/05/19 01:58:38;;;;;;;4.47;3.53;;;8.20;99.90;;;;;;10421014;28;20282;-59
2021/05/19 02:03:40;;;;;;;5.13;3.03;;;8.20;99.90;;;;;;10395789;28;20107;-59
2021/05/19 02:08:41;;;;;;;5.65;2.75;;;8.20;99.90;;;;;;10420843;28;20056;-59
2021/05/19 02:13:43;;;;;;;4.57;3.65;;;8.20;99.90;;;;;;10412342;28;20134;-59
2021/05/19 02:18:45;;;;;;;8.60;3.38;;;8.10;99.90;;;;;;10415548;28;20366;-59
2021/05/19 02:23:47;;;;;;;4.45;3.38;;;8.00;99.90;;;;;;10417360;28;20041;-59
2021/05/19 02:28:48;;;;;;;3.55;2.83;;;7.90;99.90;;;;;;10417146;28;20048;-59
2021/05/19 02:33:50;;;;;;;6.95;3.70;;;7.80;99.90;;;;;;10418691;28;20057;-59
2021/05/19 02:38:52;;;;;;;4.55;4.03;;;7.70;99.90;;;;;;10413929;28;20077;-60
2021/05/19 02:43:54;;;;;;;5.22;4.70;;;7.70;99.90;;;;;;10417127;28;20446;-60
2021/05/19 02:49:01;;;;;;;6.47;4.93;;;7.50;99.90;;;;;;10415526;28;20045;-59
2021/05/19 02:54:05;;;;;;;6.55;5.22;;;7.50;99.90;;;;;;10418831;28;20052;-60
2021/05/19 02:59:07;;;;;;;7.25;5.20;;;7.40;99.90;;;;;;10413806;28;20046;-59
2021/05/19 03:04:09;;;;;;;8.43;4.20;;;7.30;99.90;;;;;;10414284;28;20083;-59
2021/05/19 03:09:10;;;;;;;7.53;4.15;;;7.40;99.90;;;;;;10412813;28;20045;-59
2021/05/19 03:14:12;;;;;;;6.50;3.92;;;7.40;99.90;;;;;;10408054;28;20072;-59
2021/05/19 03:19:14;;;;;;;5.75;3.80;;;7.40;99.90;;;;;;10413611;28;20079;-59
2021/05/19 03:24:16;;;;;;;8.05;4.03;;;7.40;99.90;;;;;;10414804;28;20045;-59
2021/05/19 03:29:17;;;;;;;6.80;4.47;;;7.50;99.90;;;;;;10412375;28;20444;-59
2021/05/19 03:34:19;;;;;;;8.98;3.95;;;7.40;99.90;;;;;;10413051;28;20110;-60
2021/05/19 03:39:21;;;;;;;7.68;4.28;;;7.30;99.90;;;;;;10411506;28;20057;-60
2021/05/19 03:44:23;;;;;;;5.85;4.15;;;7.40;99.90;;;;;;10414612;28;20053;-60
2021/05/19 03:49:27;;;;;;;7.28;4.32;;;7.30;99.90;;;;;;10413319;28;20108;-59
2021/05/19 03:54:32;;;;;;;8.15;4.55;;;7.50;99.90;;;;;;10411001;28;20551;-60
2021/05/19 03:59:34;;;;;;;7.75;4.70;;;7.60;99.90;;;;;;10419605;28;20994;-59
2021/05/19 04:04:36;;;;;;;8.50;5.00;;;7.70;99.90;;;;;;10410698;28;20045;-60
2021/05/19 04:09:38;;;;;;;8.50;4.78;;;7.80;99.90;;;;;;10411809;28;20057;-60
2021/05/19 04:14:40;;;;;;;5.05;3.75;;;7.90;99.90;;;;;;10411442;28;20049;-60
2021/05/19 04:19:41;;;;;;;7.28;4.68;;;8.00;99.90;;;;;;10415091;28;20102;-60
2021/05/19 04:24:43;;;;;;;6.70;4.35;;;8.10;99.90;;;;;;10414313;28;20048;-59
2021/05/19 04:29:45;;;;;;;6.63;4.00;;;8.10;99.90;;;;;;10415483;28;20053;-62
2021/05/19 04:34:47;;;;;;;7.25;3.95;;;8.20;99.90;;;;;;10415760;28;20048;-60
2021/05/19 04:39:48;;;;;;;10.20;4.60;;;8.30;99.90;;;;;;10410148;28;20052;-60
2021/05/19 04:44:50;;;;;;;6.18;4.43;;;8.30;99.90;;;;;;10411161;28;20041;-61
2021/05/19 04:49:52;;;;;;;8.43;4.55;;;8.40;99.90;;;;;;10412796;28;20045;-60
2021/05/19 04:54:54;;;;;;;7.45;4.55;;;8.40;99.90;;;;;;10410734;28;20045;-60
2021/05/19 04:59:56;;;;;;;7.82;5.70;;;8.50;99.90;;;;;;10411648;28;20479;-60
2021/05/19 05:04:57;;;;;;;8.40;4.45;;;8.60;99.90;;;;;;10412775;28;20045;-61
2021/05/19 05:10:02;;;;;;;7.38;5.07;;;8.80;99.90;;;;;;10408530;28;20149;-61
2021/05/19 05:15:06;;;;;;;10.48;4.63;;;8.70;99.90;;;;;;10410443;28;20084;-60
2021/05/19 05:20:09;;;;;;;6.47;4.88;;;8.70;99.90;;;;;;10413916;28;20048;-60
2021/05/19 05:25:13;;;;;;;10.38;5.18;;;8.70;99.90;;;;;;10424218;28;20057;-60
2021/05/19 05:30:17;;;;;;;7.25;4.97;;;8.70;99.90;;;;;;10403061;28;20509;-60
2021/05/19 05:35:18;;;;;;;6.22;4.45;;;8.90;99.90;;;;;;10422184;28;20056;-60
2021/05/19 05:40:20;;;;;;;7.82;4.65;;;9.10;99.90;;;;;;10426788;28;20483;-60
2021/05/19 05:45:22;;;;;;;7.22;5.30;;;9.30;99.90;;;;;;10422621;28;20479;-60
2021/05/19 05:50:25;;;;;;;5.95;4.70;;;9.40;99.90;;;;;;10421083;28;20136;-61
2021/05/19 05:55:27;;;;;;;7.18;4.55;;;9.50;99.90;;;;;;10426047;28;20048;-61
2021/05/19 06:00:29;;;;;;;7.00;4.82;;;9.70;99.90;;;;;;10424678;28;20059;-62
2021/05/19 06:05:30;;;;;;;7.13;4.90;;;9.90;99.90;;;;;;10422830;28;20055;-62
2021/05/19 06:10:32;;;;;;;6.45;4.75;;;9.80;99.90;;;;;;10429455;28;20053;-62
2021/05/19 06:15:34;;;;;;;6.82;4.90;;;10.00;99.90;;;;;;10423178;28;20059;-62
2021/05/19 06:20:36;;;;;;;8.27;4.60;;;10.10;99.90;;;;;;10426257;28;20833;-61
2021/05/19 06:25:38;;;;;;;8.60;4.47;;;10.10;99.90;;;;;;10419008;28;20041;-61
2021/05/19 06:30:40;;;;;;;7.22;4.57;;;10.30;99.90;;;;;;10414976;28;20451;-62
2021/05/19 06:35:42;;;;;;;9.32;3.88;;;10.00;99.90;;;;;;10410313;28;20042;-61
2021/05/19 06:40:44;;;;;;;14.95;4.50;;;10.10;99.90;;;;;;10418140;28;20044;-61
2021/05/19 06:45:46;;;;;;;6.82;3.75;;;9.90;99.90;;;;;;10395110;28;20075;-60
2021/05/19 06:50:47;;;;;;;7.07;3.65;;;10.20;99.90;;;;;;10419400;28;20049;-60
2021/05/19 06:55:51;;;;;;;5.15;3.80;;;10.40;99.90;;;;;;10419629;28;20049;-60
2021/05/19 07:00:54;;;;;;;4.75;4.07;;;10.70;99.90;;;;;;10413935;28;20049;-60
2021/05/19 07:05:55;;;;;;;6.63;4.32;;;10.90;99.90;;;;;;10416659;28;20041;-60
2021/05/19 07:10:57;;;;;;;7.47;3.13;;;10.60;99.90;;;;;;10417534;28;20644;-61
2021/05/19 07:16:01;;;;;;;7.35;3.63;;;11.30;99.90;;;;;;10412941;28;20045;-61
2021/05/19 07:21:04;;;;;;;5.55;3.92;;;11.00;99.90;;;;;;10421582;28;20052;-60
2021/05/19 07:26:07;;;;;;;7.18;3.40;;;11.40;99.90;;;;;;10415138;28;20372;-62
2021/05/19 07:31:09;;;;;;;4.70;3.92;;;11.80;99.90;;;;;;10395388;28;20057;-62
2021/05/19 07:36:10;;;;;;;3.47;3.10;;;12.00;99.90;;;;;;10412847;28;20056;-61
2021/05/19 07:41:12;;;;;;;5.65;2.53;;;11.70;99.90;;;;;;10416217;28;20136;-61
2021/05/19 07:46:14;;;;;;;5.25;2.10;;;11.60;99.90;;;;;;10411950;28;20052;-62
2021/05/19 07:51:16;;;;;;;3.83;2.60;;;11.80;99.90;;;;;;10412673;28;20099;-60
2021/05/19 07:56:23;;;;;;;2.42;2.00;;;11.50;99.90;;;;;;10416839;28;20060;-61
2021/05/19 08:06:27;;;;;;;3.78;2.60;;;12.20;99.90;;;;;;10412086;28;20363;-61
2021/05/19 08:11:27;;;;;;;7.03;2.33;;;12.10;99.90;;;;;;10414945;28;20042;-61
2021/05/19 08:16:28;;;;;;;4.05;2.15;;;12.10;99.90;;;;;;10414358;28;20091;-59
2021/05/19 08:21:29;;;;;;;1.95;1.40;;;12.40;99.90;;;;;;10411052;28;22672;-61
2021/05/19 08:26:31;;;;;;;3.75;1.77;;;12.90;99.90;;;;;;10406193;28;20049;-60
2021/05/19 08:31:33;;;;;;;5.30;2.22;;;13.00;99.90;;;;;;10414843;28;20060;-61
2021/05/19 08:36:46;;;;;;;7.13;1.73;;;13.10;99.90;;;;;;10411758;28;20065;-61
2021/05/19 08:41:51;;;;;;;2.10;1.35;;;14.00;99.90;;;;;;10413893;28;20077;-61
2021/05/19 08:46:56;;;;;;;2.63;1.90;;;13.80;99.90;;;;;;10408418;28;20049;-61
2021/05/19 08:51:58;;;;;;;3.42;1.48;;;13.90;99.90;;;;;;10408930;28;20041;-61
2021/05/19 08:56:59;;;;;;;2.90;1.35;;;14.50;99.90;;;;;;10408939;28;20053;-61
2021/05/19 09:02:12;;;;;;;6.55;1.00;;;15.10;99.70;;;;;;10409941;28;20110;-61
2021/05/19 09:07:19;;;;;;;2.38;0.77;;;14.90;97.30;;;;;;10406385;28;20045;-60
2021/05/19 09:12:22;;;;;;;1.67;0.90;;;15.50;95.40;;;;;;10418416;28;20065;-61
2021/05/19 09:17:38;;;;;;;2.05;0.90;;;15.90;94.40;;;;;;10412075;28;20061;-61
2021/05/19 09:22:45;;;;;;;1.55;0.90;;;15.30;92.70;;;;;;10410994;28;20111;-60
2021/05/19 09:27:48;;;;;;;;;;;14.80;94.00;;;;;;10410919;28;20048;-59
2021/05/19 09:32:50;;;;;;;2.55;0.70;;;14.60;92.20;;;;;;10412304;28;19932;-60
2021/05/19 09:37:51;;;;;;;1.27;0.60;;;14.50;92.90;;;;;;10392528;28;20092;-60
2021/05/19 09:42:58;;;;;;;2.33;0.65;;;14.20;93.10;;;;;;10411278;28;20057;-60
2021/05/19 09:48:00;;;;;;;3.38;0.88;;;14.50;92.50;;;;;;10396015;28;20065;-59
2021/05/19 09:53:16;;;;;;;1.75;0.63;;;14.80;92.20;;;;;;10409449;28;20114;-59
2021/05/19 09:58:36;;;;;;;2.95;1.48;;;14.90;91.50;;;;;;10404512;28;20107;-60
2021/05/19 10:03:38;;;;;;;2.47;0.90;;;15.00;95.10;;;;;;10412453;28;20114;-60
2021/05/19 10:08:40;;;;;;;3.03;0.75;;;15.10;95.10;;;;;;10413711;28;20106;-59
2021/05/19 10:13:43;;;;;;;1.63;0.68;;;14.60;93.10;;;;;;10417113;28;20067;-60
2021/05/19 10:18:51;;;;;;;1.92;0.50;;;14.20;94.90;;;;;;10415711;28;20107;-59
2021/05/19 10:24:06;;;;;;;1.27;0.60;;;13.90;96.00;;;;;;10420332;28;20041;-59
2021/05/19 10:29:07;;;;;;;1.27;0.22;;;12.90;99.50;;;;;;10415479;28;20138;-60
2021/05/19 10:34:09;;;;;;;0.50;0.30;;;12.40;99.60;;;;;;10415772;28;20049;-59
2021/05/19 10:39:14;;;;;;;2.05;0.50;;;12.10;99.90;;;;;;10415401;28;20052;-58
2021/05/19 10:44:28;;;;;;;0.43;0.30;;;12.70;99.90;;;;;;10419289;28;20053;-59
2021/05/19 10:50:12;;;;;;;0.52;0.30;;;13.80;99.90;;;;;;10418060;28;20053;-59
2021/05/19 11:00:33;;;;;;;2.58;0.30;;;14.80;88.70;;;;;;10413848;28;20562;-59
2021/05/19 11:05:37;;;;;;;0.60;0.20;;;14.80;90.90;;;;;;10417138;28;20049;-60
2021/05/19 11:10:50;;;;;;;2.45;0.43;;;14.90;89.60;;;;;;10415023;28;20054;-59
2021/05/19 11:20:59;;;;;;;1.10;0.40;;;16.00;96.40;;;;;;10414715;28;20053;-60
2021/05/19 11:26:12;;;;;;;0.88;0.40;;;16.40;98.10;;;;;;10421680;28;20457;-61
2021/05/19 11:31:16;;;;;;;0.73;0.47;;;16.70;95.50;;;;;;10414675;28;20095;-61
2021/05/19 11:36:37;;;;;;;2.15;0.35;;;16.60;97.40;;;;;;10409588;28;20057;-61
2021/05/19 11:41:39;;;;;;;1.42;0.30;;;16.70;92.70;;;;;;10413223;28;20107;-61
2021/05/19 11:46:43;;;;;;;2.85;0.20;;;17.10;90.40;;;;;;10413547;28;20108;-59
2021/05/19 11:51:45;;;;;;;1.42;0.30;;;17.50;77.40;;;;;;10412484;28;20751;-59
2021/05/19 11:56:50;;;;;;;1.38;0.20;;;17.40;76.00;;;;;;10415612;28;20072;-60
2021/05/19 12:02:18;;;;;;;0.57;0.20;;;17.90;81.50;;;;;;10419702;28;20053;-60
2021/05/19 12:07:37;;;;;;;3.05;0.10;;;18.30;75.70;;;;;;10366082;28;20557;-60
2021/05/19 12:12:41;;;;;;;1.35;0.20;;;17.50;66.60;;;;;;10412475;28;20494;-59
2021/05/19 12:17:43;;;;;;;2.22;0.20;;;17.80;73.60;;;;;;10411780;28;20462;-59
2021/05/19 12:22:46;;;;;;;1.50;0.22;;;17.80;72.10;;;;;;10411729;28;20052;-60
2021/05/19 12:28:06;;;;;;;1.90;0.20;;;17.30;60.60;;;;;;10413235;28;20569;-60
2021/05/19 12:33:09;;;;;;;0.22;0.00;;;17.50;63.10;;;;;;10410620;28;20044;-59
2021/05/19 12:38:11;;;;;;;0.98;0.63;;;17.70;57.50;;;;;;10411187;28;20056;-59
2021/05/19 12:43:25;;;;;;;1.15;0.00;;;17.00;58.20;;;;;;10415507;28;20056;-59
2021/05/19 12:48:36;;;;;;;5.43;0.20;;;18.10;59.50;;;;;;10414131;28;20049;-60
2021/05/19 12:53:48;;;;;;;0.68;0.00;;;17.50;59.90;;;;;;10415606;28;20119;-59
2021/05/19 12:58:56;;;;;;;0.88;0.05;;;17.90;56.70;;;;;;10410198;28;20110;-60
2021/05/19 13:04:01;;;;;;;0.70;0.00;;;18.50;56.40;;;;;;10414991;28;20095;-60
2021/05/19 13:09:07;;;;;;;0.20;0.05;;;18.20;53.30;;;;;;10411836;28;20049;-60
2021/05/19 13:14:09;;;;;;;0.40;0.10;;;17.40;58.10;;;;;;10414319;28;20049;-60
2021/05/19 13:19:20;;;;;;;0.30;0.00;;;17.50;58.40;;;;;;10395825;28;20051;-59
2021/05/19 13:24:23;;;;;;;0.90;0.10;;;17.50;57.00;;;;;;10410339;28;20052;-60
2021/05/19 13:29:25;;;;;;;0.43;0.13;;;17.70;58.60;;;;;;10404958;28;20566;-60
2021/05/19 13:34:45;;;;;;;1.80;0.10;;;18.00;57.30;;;;;;10411663;28;20499;-60
2021/05/19 13:39:47;;;;;;;1.73;0.10;;;18.40;54.10;;;;;;10414713;28;20056;-60
2021/05/19 13:44:49;;;;;;;0.70;0.10;;;18.90;53.80;;;;;;10408333;28;20533;-60
2021/05/19 13:49:50;;;;;;;1.23;0.05;;;19.20;52.70;;;;;;10420900;28;20045;-60
2021/05/19 13:54:52;;;;;;;1.02;0.10;;;19.00;53.10;;;;;;10404782;28;20045;-59
2021/05/19 13:59:54;;;;;;;1.17;0.10;;;18.50;54.80;;;;;;10421893;28;20076;-59
2021/05/19 14:04:56;;;;;;;1.25;0.10;;;18.10;55.80;;;;;;10416428;28;20123;-60
2021/05/19 14:09:58;;;;;;;0.20;0.10;;;18.10;55.20;;;;;;10418837;28;20044;-60
2021/05/19 14:15:06;;;;;;;0.20;0.03;;;18.10;56.00;;;;;;10420674;28;20067;-60
2021/05/19 14:20:31;;;;;;;0.10;0.10;;;17.80;58.90;;;;;;10422335;28;20049;-60
2021/05/19 14:30:53;;;;;;;4.55;0.15;;;17.50;61.50;;;;;;10369767;28;20048;-60
2021/05/19 14:36:30;;;;;;;0.40;0.10;;;17.60;62.70;;;;;;10418093;28;20057;-59
2021/05/19 15:02:48;;;;;;;2.17;0.10;;;17.10;63.80;;;;;;10406600;28;20041;-60
2021/05/19 15:07:50;;;;;;;0.63;0.20;;;16.60;64.90;;;;;;10407773;28;20052;-59
2021/05/19 15:12:52;;;;;;;1.80;0.10;;;16.30;64.20;;;;;;10412227;28;20483;-61
2021/05/19 15:17:54;;;;;;;0.30;0.10;;;16.00;66.00;;;;;;10414746;28;20041;-60
2021/05/19 15:22:56;;;;;;;1.08;0.47;;;15.90;68.90;;;;;;10412158;28;20405;-60
2021/05/19 15:27:57;;;;;;;1.00;0.38;;;15.80;70.50;;;;;;10416112;28;20045;-60
2021/05/19 15:32:59;;;;;;;0.85;0.10;;;15.70;71.50;;;;;;10411826;28;20480;-59
2021/05/19 15:38:01;;;;;;;0.95;0.00;;;15.50;78.00;;;;;;10416492;28;24455;-60
2021/05/19 15:43:02;;;;;;;1.80;0.32;;;16.20;82.10;;;;;;10413870;28;20057;-60
2021/05/19 15:48:07;;;;;;;2.50;0.10;;;17.40;73.80;;;;;;10413808;28;20041;-60
2021/05/19 15:53:10;;;;;;;0.73;0.13;;;16.70;74.80;;;;;;10406034;28;20050;-60
2021/05/19 15:58:11;;;;;;;1.48;0.10;;;16.20;76.50;;;;;;10413483;28;20045;-60
2021/05/19 16:03:15;;;;;;;10.60;1.02;;;16.20;76.20;;;;;;10421161;28;20053;-61
2021/05/19 16:08:16;;;;;;;4.05;0.35;;;15.80;82.20;;;;;;10416389;28;20045;-59
2021/05/19 16:13:19;;;;;;;1.55;0.50;;;14.90;92.70;;;;;;10423731;28;20060;-59
2021/05/19 16:18:20;;;;;;;1.85;0.40;;;15.60;99.90;;;;;;10364003;28;20054;-60
2021/05/19 16:23:22;;;;;;;0.70;0.20;;;16.00;99.90;;;;;;10406933;28;20067;-60
2021/05/19 16:28:24;;;;;;;0.93;0.20;;;15.90;99.90;;;;;;10388766;28;20040;-60
2021/05/19 16:38:58;;;;;;;0.60;0.30;;;15.50;94.90;;;;;;10062493;29;20053;-60
2021/05/19 16:44:00;;;;;;;0.50;0.17;;;15.90;98.60;;;;;;10108225;29;20100;-60
2021/05/19 16:49:08;;;;;;;1.55;0.10;;;15.90;94.70;;;;;;10071818;29;20048;-61
2021/05/19 16:54:11;;;;;;;0.35;0.20;;;15.30;95.00;;;;;;10107853;29;20377;-58
2021/05/19 16:59:14;;;;;;;2.20;0.20;;;15.10;92.10;;;;;;10110096;29;20056;-61
2021/05/19 17:09:37;;;;;;;14.50;1.73;;;14.80;91.90;;;;;;10109170;29;20060;-60
2021/05/19 17:14:39;;;;;;;1.95;0.15;;;14.70;92.00;;;;;;10106068;29;20108;-61
2021/05/19 17:19:41;;;;;;;1.92;0.20;;;14.50;92.90;;;;;;10110822;29;20433;-61
2021/05/19 17:24:47;;;;;;;6.00;0.30;;;14.60;91.80;;;;;;10107561;29;20373;-61
2021/05/19 17:29:49;;;;;;;1.55;0.20;;;14.60;92.50;;;;;;10111296;29;20285;-61
2021/05/19 17:34:51;;;;;;;1.92;0.30;;;14.50;91.70;;;;;;10100078;29;20151;-58
2021/05/19 17:39:56;;;;;;;0.75;0.20;;;14.40;92.00;;;;;;10070722;29;20559;-61
2021/05/19 17:44:57;;;;;;;1.15;0.10;;;14.30;92.20;;;;;;10071507;29;20080;-61
2021/05/19 17:49:59;;;;;;;1.65;0.10;;;14.20;91.30;;;;;;10073358;29;20667;-59
2021/05/19 17:55:01;;;;;;;1.08;0.17;;;14.10;90.80;;;;;;10070224;29;20350;-59
2021/05/19 18:00:04;;;;;;;2.78;0.10;;;14.00;90.60;;;;;;10071051;29;20549;-59
2021/05/19 18:05:06;;;;;;;0.15;0.03;;;14.00;91.10;;;;;;10072770;29;20056;-58
2021/05/19 18:10:08;;;;;;;0.60;0.10;;;14.00;87.90;;;;;;10071395;29;20049;-58
2021/05/19 18:15:10;;;;;;;0.88;0.10;;;14.00;87.90;;;;;;10073524;29;20116;-58
2021/05/19 18:20:12;;;;;;;0.40;0.10;;;14.00;88.60;;;;;;10068883;29;20053;-57
2021/05/19 18:25:14;;;;;;;1.42;0.10;;;13.90;89.70;;;;;;10069647;29;20049;-58
2021/05/19 18:30:26;;;;;;;0.28;0.10;;;13.90;90.00;;;;;;10075720;29;20056;-58
2021/05/19 18:35:38;;;;;;;0.82;0.20;;;13.90;90.60;;;;;;10076851;29;20093;-61
2021/05/19 18:40:42;;;;;;;0.55;0.20;;;13.90;91.30;;;;;;10075815;29;20040;-58
2021/05/19 18:45:46;;;;;;;4.80;0.57;;;13.80;91.60;;;;;;10074949;29;20060;-59
2021/05/19 18:50:48;;;;;;;0.47;0.17;;;13.80;91.90;;;;;;10069979;29;20662;-58
2021/05/19 18:55:50;;;;;;;0.52;0.20;;;13.70;92.80;;;;;;10072472;29;20057;-59
2021/05/19 19:00:51;;;;;;;1.70;0.20;;;13.60;93.40;;;;;;10073469;29;20060;-59
2021/05/19 19:05:53;;;;;;;2.47;0.20;;;13.40;93.40;;;;;;10072263;29;20462;-60
2021/05/19 19:10:55;;;;;;;1.75;0.65;;;13.30;92.80;;;;;;10070298;29;20140;-64
2021/05/19 19:16:00;;;;;;;1.55;0.13;;;13.10;92.30;;;;;;10073627;29;20144;-62
2021/05/19 19:21:02;;;;;;;0.45;0.20;;;12.90;92.90;;;;;;10074708;29;20068;-62
2021/05/19 19:26:07;;;;;;;0.75;0.10;;;12.90;94.30;;;;;;10059383;29;20052;-61
2021/05/19 19:31:08;;;;;;;0.47;0.20;;;12.70;94.30;;;;;;10071966;29;20196;-62
2021/05/19 19:36:10;;;;;;;1.23;0.30;;;12.60;95.90;;;;;;10068656;29;20136;-60
2021/05/19 19:41:12;;;;;;;5.90;1.20;;;12.40;97.80;;;;;;10074307;29;20057;-60
2021/05/19 19:46:14;;;;;;;2.13;0.50;;;12.30;99.90;;;;;;10048866;29;20497;-61
2021/05/19 19:51:16;;;;;;;1.02;0.52;;;12.30;99.90;;;;;;10075953;29;20057;-61
2021/05/19 19:56:17;;;;;;;0.63;0.30;;;12.30;99.90;;;;;;10071579;29;20057;-61
2021/05/19 20:01:20;;;;;;;0.28;0.22;;;12.20;99.90;;;;;;10068406;29;20060;-60
2021/05/19 20:06:22;;;;;;;2.58;0.25;;;12.20;99.90;;;;;;10072063;29;20101;-63
2021/05/19 20:11:24;;;;;;;1.77;0.30;;;12.20;99.90;;;;;;10071783;29;20049;-62
2021/05/19 20:16:26;;;;;;;1.35;0.10;;;12.20;99.90;;;;;;10072991;29;20057;-61
2021/05/19 20:21:32;;;;;;;2.33;0.40;;;12.10;99.90;;;;;;10062824;29;20061;-60
2021/05/19 20:26:34;;;;;;;1.83;0.20;;;12.20;99.90;;;;;;10073279;29;20053;-61
2021/05/19 20:31:36;;;;;;;1.35;0.38;;;12.20;99.90;;;;;;10072607;29;20469;-61
2021/05/19 20:36:38;;;;;;;2.17;0.40;;;12.20;99.90;;;;;;10072862;29;20128;-61
2021/05/19 20:41:40;;;;;;;2.17;0.20;;;12.20;99.90;;;;;;10074518;29;20061;-61
2021/05/19 20:46:42;;;;;;;0.40;0.40;;;12.20;99.90;;;;;;10070670;29;20049;-61
2021/05/19 20:51:43;;;;;;;0.38;0.20;;;12.10;99.90;;;;;;10069599;29;20088;-60
2021/05/19 20:56:46;;;;;;;0.70;0.20;;;12.00;99.90;;;;;;10072674;29;20063;-60
2021/05/19 21:01:47;;;;;;;1.35;0.32;;;12.00;99.90;;;;;;10066420;29;20442;-61
2021/05/19 21:06:49;;;;;;;0.75;0.30;;;12.00;99.90;;;;;;10070224;29;20041;-61
2021/05/19 21:11:53;;;;;;;2.33;0.30;;;11.80;99.90;;;;;;10073396;29;20061;-60
2021/05/19 21:16:55;;;;;;;1.60;0.45;;;11.80;99.90;;;;;;10072385;29;20096;-60
2021/05/19 21:21:57;;;;;;;0.77;0.20;;;11.60;99.90;;;;;;10068405;29;20048;-60
2021/05/19 21:26:59;;;;;;;0.10;0.10;;;11.50;99.90;;;;;;10071386;29;20053;-61
2021/05/19 21:32:01;;;;;;;0.32;0.00;;;11.10;99.90;;;;;;10073129;29;20631;-61
2021/05/19 21:37:06;;;;;;;0.47;0.00;;;10.50;99.90;;;;;;10051783;29;20112;-61
2021/05/19 21:42:08;;;;;;;0.95;0.08;;;10.20;99.90;;;;;;10071788;29;20057;-60
2021/05/19 21:47:09;;;;;;;2.92;0.10;;;10.10;99.90;;;;;;10072451;29;20109;-60
2021/05/19 21:52:11;;;;;;;0.88;0.47;;;9.90;99.90;;;;;;10071156;29;20156;-60
2021/05/19 21:57:13;;;;;;;2.05;0.30;;;9.70;99.90;;;;;;10059158;29;20056;-59
2021/05/19 22:02:14;;;;;;;0.35;0.32;;;9.70;99.90;;;;;;10074502;29;20105;-61
2021/05/19 22:07:16;;;;;;;1.65;0.30;;;9.60;99.90;;;;;;10026814;29;20106;-61
2021/05/19 22:12:18;;;;;;;0.80;0.50;;;9.60;99.90;;;;;;10078976;29;20061;-61
2021/05/19 22:17:26;;;;;;;1.98;0.50;;;9.60;99.90;;;;;;10075175;29;20061;-61
2021/05/19 22:22:48;;;;;;;4.43;0.75;;;9.60;99.90;;;;;;10068949;29;20113;-61
2021/05/19 22:27:50;;;;;;;2.17;0.80;;;9.70;99.90;;;;;;10073873;29;20094;-60
2021/05/19 22:32:52;;;;;;;1.92;0.45;;;9.70;99.90;;;;;;10077938;29;20048;-61
2021/05/19 22:37:53;;;;;;;1.02;0.50;;;9.70;99.90;;;;;;10077347;29;20445;-61
2021/05/19 22:42:55;;;;;;;3.72;1.02;;;9.70;99.90;;;;;;10077531;29;20113;-60
2021/05/19 22:47:57;;;;;;;5.28;1.60;;;9.80;99.90;;;;;;10075945;29;20085;-60
2021/05/19 22:52:58;;;;;;;3.70;1.02;;;9.80;99.90;;;;;;10076864;29;20053;-60
2021/05/19 22:58:00;;;;;;;3.25;0.80;;;9.80;99.90;;;;;;10076780;29;20458;-60
2021/05/19 23:03:03;;;;;;;5.25;0.77;;;9.80;99.90;;;;;;10074313;29;20052;-61
2021/05/19 23:08:07;;;;;;;3.72;0.50;;;9.90;99.90;;;;;;10076617;29;20496;-61
2021/05/19 23:13:09;;;;;;;1.17;0.50;;;9.90;99.90;;;;;;10072003;29;20052;-61
2021/05/19 23:18:11;;;;;;;2.85;0.40;;;9.90;99.90;;;;;;10073271;29;20104;-60
2021/05/19 23:23:14;;;;;;;0.40;0.30;;;9.90;99.90;;;;;;10074360;29;20045;-60
2021/05/19 23:28:15;;;;;;;2.05;0.28;;;9.90;99.90;;;;;;10075867;29;20053;-61
2021/05/19 23:33:17;;;;;;;1.67;0.40;;;10.00;99.90;;;;;;10073993;29;20508;-60
2021/05/19 23:38:19;;;;;;;1.85;0.30;;;10.00;99.90;;;;;;10075441;29;20076;-61
2021/05/19 23:43:21;;;;;;;3.53;0.40;;;9.90;99.90;;;;;;10073766;29;20107;-61
2021/05/19 23:48:23;;;;;;;2.33;0.40;;;9.80;99.90;;;;;;10074352;29;20529;-61
2021/05/19 23:53:24;;;;;;;0.90;0.40;;;9.90;99.90;;;;;;10075480;29;20489;-60
2021/05/19 23:58:26;;;;;;;1.23;0.60;;;9.90;99.90;;;;;;10073879;29;20049;-61
